createdAt,value
2018-03-12T00:07:07.937Z,75.6
2018-03-12T00:17:22.746Z,74.2
2018-03-12T00:27:38.443Z,72.7
2018-03-12T00:37:53.423Z,72.6
2018-03-12T00:48:08.294Z,72.9
2018-03-12T00:58:23.354Z,72.1
2018-03-12T01:08:38.541Z,71.7
2018-03-12T01:18:52.560Z,71.1
2018-03-12T01:29:07.660Z,71.1
2018-03-12T01:39:22.135Z,69.9
2018-03-12T01:49:37.750Z,71.1
2018-03-12T01:59:52.304Z,71.3
2018-03-12T02:10:06.137Z,71.2
2018-03-12T02:20:21.075Z,70.1
2018-03-12T02:30:34.939Z,70.4
2018-03-12T02:40:49.134Z,70
2018-03-12T02:51:04.368Z,69.3
2018-03-12T03:01:19.159Z,70.3
2018-03-12T03:11:33.501Z,69.7
2018-03-12T03:21:47.537Z,69.7
2018-03-12T03:32:01.973Z,70.4
2018-03-12T03:42:15.674Z,70.3
2018-03-12T03:52:29.659Z,71
2018-03-12T04:02:43.364Z,70.8
2018-03-12T04:12:58.087Z,71.7
2018-03-12T04:23:12.381Z,70.7
2018-03-12T04:33:26.940Z,70.8
2018-03-12T04:43:40.951Z,71.4
2018-03-12T04:53:55.863Z,72
2018-03-12T05:04:10.423Z,71.8
2018-03-12T05:14:25.645Z,72
2018-03-12T05:24:40.327Z,72.1
2018-03-12T05:34:55.570Z,72.7
2018-03-12T05:45:09.270Z,73.2
2018-03-12T05:55:24.558Z,73.5
2018-03-12T06:05:39.161Z,74
2018-03-12T06:15:54.103Z,74.4
2018-03-12T06:26:09.268Z,74.8
2018-03-12T06:36:23.208Z,74.9
2018-03-12T06:46:37.398Z,75.2
2018-03-12T06:56:51.702Z,75.2
2018-03-12T07:07:07.113Z,76.1
2018-03-12T07:17:21.933Z,76.3
2018-03-12T07:27:36.975Z,76.8
2018-03-12T07:37:52.659Z,76.7
2018-03-12T07:48:07.321Z,77
2018-03-12T08:08:35.339Z,78
2018-03-12T08:18:50.662Z,78.1
2018-03-12T08:29:06.058Z,79
2018-03-12T08:39:20.421Z,79.6
2018-03-12T08:49:36.372Z,79.7
2018-03-12T08:59:51.801Z,81.1
2018-03-12T09:10:07.128Z,82.5
2018-03-12T09:20:22.163Z,84.4
2018-03-12T09:30:37.204Z,85.8
2018-03-12T09:40:51.818Z,88.2
2018-03-12T09:51:05.611Z,89.8
2018-03-12T10:01:20.576Z,91.9
2018-03-12T10:11:36.002Z,94.7
2018-03-12T10:21:50.333Z,95.2
2018-03-12T10:32:05.507Z,98.5
2018-03-12T10:42:21.095Z,100
2018-03-12T10:52:34.947Z,100
2018-03-12T11:02:50.288Z,100
2018-03-12T11:13:04.468Z,100
2018-03-12T11:23:20.088Z,100
2018-03-12T11:33:35.098Z,100
2018-03-12T11:43:49.431Z,100
2018-03-12T11:54:04.896Z,100
2018-03-12T12:04:19.822Z,100
2018-03-12T12:14:34.476Z,100
2018-03-12T12:24:49.038Z,100
2018-03-12T12:35:03.229Z,100
2018-03-12T12:45:18.830Z,100
2018-03-12T12:55:33.141Z,100
2018-03-12T13:05:47.819Z,100
2018-03-12T13:16:03.486Z,100
2018-03-12T13:26:18.625Z,100
2018-03-12T13:36:32.994Z,100
2018-03-12T13:46:47.309Z,100
2018-03-12T13:57:01.174Z,100
2018-03-12T14:07:15.052Z,100
2018-03-12T14:17:29.318Z,100
2018-03-12T14:27:43.857Z,100
2018-03-12T14:37:58.732Z,100
2018-03-12T14:48:13.580Z,100
2018-03-12T14:58:27.567Z,100
2018-03-12T15:08:42.963Z,100
2018-03-12T15:29:12.961Z,100
2018-03-12T15:39:27.111Z,100
2018-03-12T15:49:42.305Z,100
2018-03-12T15:59:56.542Z,100
2018-03-12T16:10:10.819Z,100
2018-03-12T16:20:26.149Z,100
2018-03-12T16:30:41.447Z,100
2018-03-12T16:40:57.190Z,100
2018-03-12T16:51:12.361Z,100
2018-03-12T17:01:27.492Z,100
2018-03-12T17:11:42.421Z,100
2018-03-12T17:21:57.252Z,100
2018-03-12T17:32:12.036Z,100
2018-03-12T17:42:26.831Z,100
2018-03-12T17:52:41.046Z,100
2018-03-12T18:02:56.753Z,100
2018-03-12T18:13:10.342Z,100
2018-03-12T18:23:25.081Z,100
2018-03-12T18:33:40.222Z,100
2018-03-12T18:43:55.258Z,100
2018-03-12T18:54:09.186Z,100
2018-03-12T19:04:23.657Z,100
2018-03-12T19:14:38.082Z,100
2018-03-12T19:24:51.994Z,100
2018-03-12T19:35:07.547Z,100
2018-03-12T19:45:23.003Z,100
2018-03-12T19:55:37.835Z,100
2018-03-12T20:05:53.268Z,100
2018-03-12T20:16:08.087Z,100
2018-03-12T20:26:22.314Z,100
2018-03-12T20:36:36.389Z,100
2018-03-12T20:46:50.245Z,100
2018-03-12T20:57:04.704Z,100
2018-03-12T21:07:19.316Z,100
2018-03-12T21:17:34.026Z,100
2018-03-12T21:27:49.215Z,100
2018-03-12T21:38:04.768Z,100
2018-03-12T21:48:20.024Z,100
2018-03-12T21:58:35.321Z,100
2018-03-12T22:08:49.798Z,100
2018-03-12T22:19:04.124Z,100
2018-03-12T22:29:19.203Z,100
2018-03-12T22:39:33.584Z,100
2018-03-12T22:49:48.627Z,100
2018-03-12T23:00:03.327Z,100
2018-03-12T23:10:18.667Z,100
2018-03-12T23:20:32.795Z,100
2018-03-12T23:30:47.245Z,100
2018-03-12T23:41:01.048Z,100
2018-03-12T23:51:14.786Z,100
